Time;durP1;ratioP1;P1;durP2;ratioP2;P2;SDS_P1;SDS_P2;PMS_P1;PMS_P2;Temp;Humidity;BMP_temperature;BMP_pressure;BME280_temperature;BME280_humidity;BME280_pressure;Samples;Min_cycle;Max_cycle;Signal;HPM_P1;HPM_P2
2023/04/22 00:02:08;;;;;;;8.82;3.58;;;;;;;9.60;39.78;99325.53;5072869;28;20383;-55
2023/04/22 00:04:33;;;;;;;7.88;3.30;;;;;;;9.60;39.59;99314.84;5072822;28;20111;-58
2023/04/22 00:07:00;;;;;;;6.15;3.13;;;;;;;9.60;39.61;99320.19;5072568;28;20051;-63
2023/04/22 00:09:25;;;;;;;9.98;3.33;;;;;;;9.58;39.65;99317.63;5071741;28;20047;-52
2023/04/22 00:11:51;;;;;;;7.05;3.40;;;;;;;9.45;39.73;99316.97;5072693;28;20352;-55
2023/04/22 00:14:17;;;;;;;5.70;3.17;;;;;;;9.52;39.87;99333.31;5072765;28;20036;-53
2023/04/22 00:16:43;;;;;;;6.15;3.30;;;;;;;9.55;39.93;99333.91;5072721;28;20412;-55
2023/04/22 00:19:08;;;;;;;8.02;3.60;;;;;;;9.43;40.27;99316.25;5072410;28;20020;-53
2023/04/22 00:21:34;;;;;;;5.35;3.33;;;;;;;9.34;40.01;99300.00;5054875;28;20037;-54
2023/04/22 00:23:59;;;;;;;9.15;3.90;;;;;;;9.47;39.98;99336.41;5072816;28;20107;-59
2023/04/22 00:26:25;;;;;;;8.85;4.07;;;;;;;9.59;39.91;99338.03;5072699;28;20453;-52
2023/04/22 00:28:50;;;;;;;5.82;3.28;;;;;;;9.60;39.98;99326.34;5071499;28;20123;-58
2023/04/22 00:31:16;;;;;;;11.85;4.75;;;;;;;9.50;40.26;99335.28;5072427;28;20074;-55
2023/04/22 00:33:41;;;;;;;11.45;4.10;;;;;;;9.42;40.38;99331.44;5071934;28;20070;-58
2023/04/22 00:36:07;;;;;;;9.48;3.88;;;;;;;9.38;40.51;99334.47;5072469;28;20032;-55
2023/04/22 00:38:33;;;;;;;6.50;3.33;;;;;;;9.30;40.85;99333.31;5071841;28;20060;-57
2023/04/22 00:40:58;;;;;;;9.90;3.17;;;;;;;9.36;40.48;99307.91;5090060;28;20490;-55
2023/04/22 00:43:24;;;;;;;9.15;3.78;;;;;;;9.24;40.63;99314.25;5092826;28;20036;-57
2023/04/22 00:45:50;;;;;;;11.30;3.75;;;;;;;9.32;40.73;99339.38;5092307;28;20021;-55
2023/04/22 00:48:15;;;;;;;7.97;3.45;;;;;;;9.28;40.94;99342.41;5091982;28;20028;-58
2023/04/22 00:50:41;;;;;;;7.50;3.58;;;;;;;9.21;40.97;99335.88;5092742;28;20198;-55
2023/04/22 00:53:06;;;;;;;10.60;3.83;;;;;;;9.17;41.31;99333.47;5057986;28;20028;-56
2023/04/22 00:55:33;;;;;;;6.95;3.55;;;;;;;9.16;41.51;99334.47;5074632;28;20028;-62
2023/04/22 00:58:01;;;;;;;8.30;3.85;;;;;;;9.04;41.35;99325.63;5092330;28;20063;-57
2023/04/22 01:00:27;;;;;;;7.78;3.53;;;;;;;9.05;41.41;99332.66;5092361;28;20434;-57
2023/04/22 01:02:54;;;;;;;9.75;3.60;;;;;;;9.05;41.49;99335.34;5092343;28;20109;-56
2023/04/22 01:05:20;;;;;;;9.60;4.00;;;;;;;9.04;41.63;99340.78;5074784;28;20042;-56
2023/04/22 01:07:45;;;;;;;12.18;3.80;;;;;;;9.00;41.66;99340.22;5092375;28;20374;-56
2023/04/22 01:10:11;;;;;;;8.30;3.90;;;;;;;8.95;41.88;99334.41;5074350;28;20028;-54
2023/04/22 01:12:36;;;;;;;8.88;3.65;;;;;;;8.96;41.71;99341.44;5092501;28;20115;-54
2023/04/22 01:15:03;;;;;;;7.20;4.18;;;;;;;8.88;42.13;99327.84;5075090;28;20028;-55
2023/04/22 01:17:32;;;;;;;10.93;3.70;;;;;;;9.11;41.82;99335.81;5092413;28;20032;-58
2023/04/22 01:19:58;;;;;;;11.35;4.15;;;;;;;8.99;41.87;99335.00;5074723;28;20122;-55
2023/04/22 01:22:28;;;;;;;11.88;4.05;;;;;;;8.99;41.73;99327.84;5091735;28;20479;-56
2023/04/22 01:24:54;;;;;;;10.27;4.03;;;;;;;8.91;42.09;99335.63;5092389;28;20722;-56
2023/04/22 01:27:19;;;;;;;14.20;4.80;;;;;;;8.88;41.91;99335.88;5091955;28;20099;-53
2023/04/22 01:29:46;;;;;;;10.90;3.97;;;;;;;8.82;42.36;99331.91;5092120;28;20115;-54
2023/04/22 01:32:12;;;;;;;12.60;3.97;;;;;;;8.74;42.87;99335.19;5091955;28;20028;-57
2023/04/22 01:34:38;;;;;;;9.55;3.97;;;;;;;8.80;42.44;99331.19;5092393;28;20039;-54
2023/04/22 01:37:04;;;;;;;6.57;3.75;;;;;;;8.80;42.85;99330.31;5092197;28;20498;-55
2023/04/22 01:39:30;;;;;;;13.60;4.10;;;;;;;8.79;42.50;99326.78;5074380;28;20056;-54
2023/04/22 01:41:57;;;;;;;11.07;4.45;;;;;;;8.76;42.21;99333.22;5091921;28;20058;-56
2023/04/22 01:44:22;;;;;;;6.32;3.67;;;;;;;8.55;42.70;99300.28;5091855;28;20035;-56
2023/04/22 01:46:48;;;;;;;8.10;3.88;;;;;;;8.64;42.56;99318.19;5071761;28;20028;-53
2023/04/22 01:49:14;;;;;;;6.97;3.63;;;;;;;8.66;43.29;99323.44;5072285;28;20401;-51
2023/04/22 01:51:39;;;;;;;10.68;4.15;;;;;;;8.64;42.92;99322.72;5093847;28;20119;-53
2023/04/22 01:54:05;;;;;;;6.93;3.58;;;;;;;8.64;42.97;99323.53;5078391;28;20097;-56
2023/04/22 01:56:30;;;;;;;10.25;4.00;;;;;;;8.60;43.03;99320.28;5095887;28;20024;-55
2023/04/22 01:58:56;;;;;;;9.88;4.03;;;;;;;8.58;43.20;99329.38;5093930;28;20085;-53
2023/04/22 02:01:21;;;;;;;9.70;3.58;;;;;;;8.51;43.14;99322.84;5077048;28;20047;-53
2023/04/22 02:03:47;;;;;;;7.35;3.72;;;;;;;8.52;43.41;99324.53;5094975;28;20107;-53
2023/04/22 02:06:12;;;;;;;14.27;3.90;;;;;;;8.47;43.71;99328.41;5094206;28;20408;-56
2023/04/22 02:08:38;;;;;;;7.70;3.72;;;;;;;8.46;44.10;99318.69;5094604;28;20020;-55
2023/04/22 02:11:04;;;;;;;8.73;4.05;;;;;;;8.42;44.21;99329.72;5094793;28;20085;-52
2023/04/22 02:13:36;;;;;;;7.78;3.88;;;;;;;8.44;44.02;99333.97;5095342;28;20114;-56
2023/04/22 02:16:02;;;;;;;6.60;3.67;;;;;;;8.38;44.28;99330.94;5077993;28;20465;-55
2023/04/22 02:18:28;;;;;;;7.22;3.42;;;;;;;8.38;44.36;99328.28;5094578;28;20036;-55
2023/04/22 02:20:53;;;;;;;10.40;3.83;;;;;;;8.23;44.45;99315.19;5095062;28;20209;-54
2023/04/22 02:23:19;;;;;;;6.97;3.60;;;;;;;8.37;44.37;99329.25;5095159;28;20343;-57
2023/04/22 02:25:49;;;;;;;8.00;3.30;;;;;;;8.38;44.40;99331.78;5077104;28;20028;-55
2023/04/22 02:28:15;;;;;;;7.63;3.50;;;;;;;8.36;44.29;99336.41;5094852;28;20036;-57
2023/04/22 02:30:41;;;;;;;7.55;3.08;;;;;;;8.38;44.47;99331.78;5076749;28;20032;-52
2023/04/22 02:33:06;;;;;;;11.27;3.85;;;;;;;8.38;44.54;99331.78;5094944;28;20073;-58
2023/04/22 02:35:32;;;;;;;8.20;3.47;;;;;;;8.39;44.37;99332.66;5076957;28;20435;-53
2023/04/22 02:37:57;;;;;;;7.35;3.30;;;;;;;8.40;44.46;99327.16;5094857;28;20748;-53
2023/04/22 02:40:23;;;;;;;8.60;4.03;;;;;;;8.42;44.50;99333.22;5094222;28;20123;-51
2023/04/22 02:42:49;;;;;;;6.82;3.28;;;;;;;8.44;44.26;99342.00;5095167;28;20048;-55
2023/04/22 02:45:14;;;;;;;8.23;3.83;;;;;;;8.46;44.53;99337.38;5094738;28;20112;-56
2023/04/22 02:47:40;;;;;;;8.15;3.10;;;;;;;8.45;44.51;99325.00;5094927;28;20024;-58
2023/04/22 02:50:06;;;;;;;10.25;3.40;;;;;;;8.56;44.31;99342.00;5094952;28;20164;-55
2023/04/22 02:52:35;;;;;;;5.95;3.10;;;;;;;8.63;44.42;99337.84;5094473;28;20036;-55
2023/04/22 02:55:00;;;;;;;9.50;3.03;;;;;;;8.60;44.23;99322.09;5094962;28;20161;-56
2023/04/22 02:57:26;;;;;;;5.97;3.05;;;;;;;8.66;44.15;99324.25;5076236;28;20102;-57
2023/04/22 02:59:52;;;;;;;6.85;3.20;;;;;;;8.79;43.82;99344.63;5094192;28;20382;-54
2023/04/22 03:02:18;;;;;;;10.55;3.35;;;;;;;8.83;43.87;99338.94;5094167;28;20035;-58
2023/04/22 03:04:43;;;;;;;6.60;3.30;;;;;;;8.89;43.64;99348.25;5094501;28;20024;-56
2023/04/22 03:07:09;;;;;;;6.63;2.95;;;;;;;8.53;43.61;99267.53;5094360;28;20034;-54
2023/04/22 03:09:35;;;;;;;6.43;3.60;;;;;;;9.01;43.64;99341.91;5094055;28;20035;-52
2023/04/22 03:12:01;;;;;;;8.10;3.10;;;;;;;9.01;43.44;99336.56;5094736;28;20063;-56
2023/04/22 03:14:27;;;;;;;6.90;3.80;;;;;;;9.13;43.27;99345.41;5093926;28;20024;-51
2023/04/22 03:16:52;;;;;;;9.73;3.90;;;;;;;9.12;42.52;99310.78;5093528;28;20093;-52
2023/04/22 03:19:18;;;;;;;8.45;3.83;;;;;;;9.33;42.40;99341.06;5093925;28;20487;-57
2023/04/22 03:21:43;;;;;;;7.57;3.47;;;;;;;9.40;42.68;99341.41;5094400;28;20336;-54
2023/04/22 03:24:09;;;;;;;17.42;4.15;;;;;;;9.45;42.31;99346.38;5094076;28;20107;-54
2023/04/22 03:26:34;;;;;;;7.40;3.80;;;;;;;9.53;42.32;99343.91;5075720;28;20544;-55
2023/04/22 03:29:00;;;;;;;11.00;3.83;;;;;;;9.62;42.46;99345.78;5093607;28;20131;-57
2023/04/22 03:31:25;;;;;;;9.38;3.22;;;;;;;9.71;41.83;99341.47;5094052;28;20374;-56
2023/04/22 03:33:51;;;;;;;8.75;3.75;;;;;;;9.86;41.44;99346.50;5093898;28;20434;-56
2023/04/22 03:36:17;;;;;;;10.55;3.97;;;;;;;10.03;41.31;99343.25;5093662;28;20039;-54
2023/04/22 03:38:42;;;;;;;6.88;3.00;;;;;;;10.76;40.30;99349.50;5075614;28;20028;-58
2023/04/22 03:41:08;;;;;;;7.32;3.05;;;;;;;12.16;37.20;99336.75;5094145;28;20097;-56
2023/04/22 03:43:33;;;;;;;8.65;3.00;;;;;;;13.83;34.12;99351.84;5093143;28;20028;-55
2023/04/22 03:45:59;;;;;;;8.70;3.20;;;;;;;15.40;31.48;99348.16;5075303;28;20048;-54
2023/04/22 03:48:25;;;;;;;7.75;2.72;;;;;;;16.74;29.05;99350.47;5075717;28;20405;-54
2023/04/22 03:50:50;;;;;;;5.20;2.80;;;;;;;17.56;27.59;99338.34;5055321;28;20028;-56
2023/04/22 03:53:16;;;;;;;7.38;3.17;;;;;;;18.64;26.02;99345.44;5073121;28;20423;-55
2023/04/22 03:55:41;;;;;;;5.38;2.80;;;;;;;19.36;24.88;99342.94;5073179;28;20028;-54
2023/04/22 03:58:07;;;;;;;5.55;2.80;;;;;;;20.08;24.16;99356.56;5073236;28;20025;-53
2023/04/22 04:00:32;;;;;;;6.75;3.10;;;;;;;20.74;23.06;99354.44;5092247;28;20034;-56
2023/04/22 04:02:58;;;;;;;7.47;3.20;;;;;;;21.48;22.09;99360.16;5093275;28;20161;-55
2023/04/22 04:05:23;;;;;;;3.97;2.80;;;;;;;22.01;21.33;99347.63;5092985;28;20439;-57
2023/04/22 04:07:49;;;;;;;6.50;2.70;;;;;;;22.68;20.59;99355.72;5074999;28;20036;-55
2023/04/22 04:10:14;;;;;;;6.75;2.85;;;;;;;23.02;19.87;99337.28;5092896;28;20477;-56
2023/04/22 04:12:40;;;;;;;6.88;2.75;;;;;;;23.45;19.46;99359.56;5075145;28;20023;-57
2023/04/22 04:15:06;;;;;;;5.40;2.97;;;;;;;23.92;18.94;99356.47;5074709;28;20488;-57
2023/04/22 04:17:32;;;;;;;6.18;3.10;;;;;;;24.49;18.09;99356.38;5092866;28;20028;-57
2023/04/22 04:19:57;;;;;;;6.55;3.13;;;;;;;25.02;17.78;99354.06;5092664;28;20030;-54
2023/04/22 04:22:23;;;;;;;4.78;2.83;;;;;;;25.56;17.09;99358.84;5092985;28;20047;-56
2023/04/22 04:24:49;;;;;;;4.20;2.72;;;;;;;26.13;16.82;99367.63;5092718;28;20352;-56
2023/04/22 04:27:14;;;;;;;6.43;2.80;;;;;;;26.57;16.20;99359.06;5092690;28;20032;-63
2023/04/22 04:29:41;;;;;;;9.93;2.30;;;;;;;27.02;15.91;99363.88;5092699;28;20032;-55
2023/04/22 04:32:07;;;;;;;5.78;2.72;;;;;;;27.48;15.44;99360.28;5074433;28;20081;-56
2023/04/22 04:34:33;;;;;;;8.45;2.42;;;;;;;28.07;14.89;99367.38;5075195;28;20127;-57
2023/04/22 04:36:59;;;;;;;6.38;2.58;;;;;;;28.72;14.22;99361.44;5092752;28;20402;-55
2023/04/22 04:39:27;;;;;;;12.93;3.47;;;;;;;29.10;13.73;99368.00;5092198;28;20043;-55
2023/04/22 04:41:54;;;;;;;6.20;2.92;;;;;;;29.42;13.36;99363.63;5092831;28;20506;-56
2023/04/22 04:44:20;;;;;;;9.80;3.05;;;;;;;29.75;13.46;99362.56;5092568;28;20031;-55
2023/04/22 04:46:47;;;;;;;7.05;3.17;;;;;;;30.53;12.65;99362.31;5092509;28;20055;-60
2023/04/22 04:49:12;;;;;;;5.03;2.80;;;;;;;30.99;12.39;99356.16;5092694;28;20077;-56
2023/04/22 04:51:38;;;;;;;4.72;2.88;;;;;;;31.28;11.88;99356.56;5092435;28;20043;-55
2023/04/22 04:54:04;;;;;;;7.18;3.00;;;;;;;31.91;11.77;99366.63;5074517;28;20119;-53
2023/04/22 04:56:30;;;;;;;6.38;2.90;;;;;;;32.10;11.08;99363.28;5092260;28;20036;-56
2023/04/22 04:58:56;;;;;;;4.80;2.80;;;;;;;32.32;10.94;99359.38;5092399;28;20055;-59
2023/04/22 05:01:21;;;;;;;6.93;2.75;;;;;;;32.91;10.93;99360.59;5092445;28;20068;-56
2023/04/22 05:03:47;;;;;;;8.45;2.90;;;;;;;33.06;10.48;99334.75;5092476;28;20039;-60
2023/04/22 05:06:13;;;;;;;5.65;3.10;;;;;;;33.33;10.23;99350.13;5092835;28;20101;-56
2023/04/22 05:08:38;;;;;;;10.43;3.05;;;;;;;34.01;9.81;99357.97;5092088;28;20142;-56
2023/04/22 05:11:04;;;;;;;7.68;2.70;;;;;;;34.31;9.62;99344.88;5092302;28;20427;-56
2023/04/22 05:13:30;;;;;;;7.72;2.95;;;;;;;34.75;9.33;99371.66;5092452;28;20066;-55
2023/04/22 05:15:55;;;;;;;6.53;2.78;;;;;;;34.80;9.26;99369.91;5092776;28;20499;-56
2023/04/22 05:18:21;;;;;;;5.97;2.25;;;;;;;35.25;9.09;99367.69;5092235;28;20081;-57
2023/04/22 05:20:47;;;;;;;5.05;2.50;;;;;;;35.66;8.42;99360.69;5074155;28;20040;-60
2023/04/22 05:23:12;;;;;;;4.35;2.13;;;;;;;36.03;8.54;99358.94;5092086;28;20036;-59
2023/04/22 05:25:38;;;;;;;6.88;2.28;;;;;;;36.51;8.07;99373.66;5094588;28;20044;-60
2023/04/22 05:28:03;;;;;;;5.13;2.05;;;;;;;36.89;7.83;99365.13;5095920;28;20107;-59
2023/04/22 05:30:29;;;;;;;6.53;2.53;;;;;;;36.96;7.66;99372.22;5095519;28;20369;-57
2023/04/22 05:32:55;;;;;;;3.67;2.70;;;;;;;37.52;7.26;99356.22;5096040;28;20032;-59
2023/04/22 05:35:20;;;;;;;7.78;2.75;;;;;;;37.28;7.55;99374.06;5096452;28;20042;-57
2023/04/22 05:37:46;;;;;;;8.60;2.60;;;;;;;37.89;7.35;99365.34;5096024;28;20028;-58
2023/04/22 05:40:11;;;;;;;3.72;2.50;;;;;;;38.75;7.26;99370.88;5077482;28;20048;-61
2023/04/22 05:42:37;;;;;;;4.40;2.17;;;;;;;39.36;6.64;99382.53;5095982;28;20093;-63
2023/04/22 05:45:03;;;;;;;6.53;2.45;;;;;;;39.29;6.14;99375.44;5095741;28;20076;-58
2023/04/22 05:47:31;;;;;;;8.75;2.40;;;;;;;39.11;6.78;99368.19;5095890;28;20115;-58
2023/04/22 05:49:56;;;;;;;3.22;2.05;;;;;;;39.44;6.30;99365.78;5095272;28;20106;-57
2023/04/22 05:52:22;;;;;;;5.18;1.60;;;;;;;39.19;5.92;99375.78;5095495;28;20100;-57
2023/04/22 05:54:47;;;;;;;6.78;2.08;;;;;;;39.15;6.34;99370.00;5096283;28;20039;-54
2023/04/22 05:57:13;;;;;;;6.28;2.58;;;;;;;39.50;6.13;99348.81;5095419;28;20424;-61
2023/04/22 05:59:38;;;;;;;5.03;1.70;;;;;;;39.45;5.62;99355.38;5094500;28;20089;-61
2023/04/22 06:02:04;;;;;;;4.47;2.20;;;;;;;40.32;6.75;99371.25;5095228;28;20085;-61
2023/04/22 06:04:29;;;;;;;6.50;2.38;;;;;;;41.39;5.57;99368.66;5095790;28;20028;-61
2023/04/22 06:06:55;;;;;;;3.35;1.90;;;;;;;42.01;4.81;99368.94;5095551;28;20044;-62
2023/04/22 06:09:21;;;;;;;2.53;1.95;;;;;;;42.54;4.83;99351.47;5094053;28;20059;-62
2023/04/22 06:11:47;;;;;;;3.17;1.50;;;;;;;43.19;4.70;99376.03;5095463;28;20047;-62
2023/04/22 06:14:12;;;;;;;4.47;1.80;;;;;;;43.51;4.53;99370.56;5095467;28;20753;-59
2023/04/22 06:16:38;;;;;;;3.80;1.42;;;;;;;43.57;4.42;99373.94;5095391;28;20032;-62
2023/04/22 06:19:05;;;;;;;1.88;1.50;;;;;;;43.18;4.46;99332.16;5094640;28;20458;-60
2023/04/22 06:21:35;;;;;;;6.95;1.60;;;;;;;44.01;4.43;99367.50;5094923;28;20032;-60
2023/04/22 06:24:04;;;;;;;6.20;2.00;;;;;;;43.83;3.79;99348.09;5095343;28;20103;-61
2023/04/22 06:26:29;;;;;;;5.32;2.10;;;;;;;43.97;4.22;99367.41;5094779;28;20057;-59
2023/04/22 06:28:55;;;;;;;4.70;1.98;;;;;;;44.26;3.93;99368.22;5076999;28;20369;-60
2023/04/22 06:31:20;;;;;;;3.53;1.83;;;;;;;44.37;3.73;99314.84;5095089;28;20039;-60
2023/04/22 06:33:46;;;;;;;5.13;1.70;;;;;;;44.99;3.55;99339.72;5094924;28;20036;-61
2023/04/22 06:36:12;;;;;;;4.18;1.80;;;;;;;45.38;3.33;99360.75;5094501;28;20123;-61
2023/04/22 06:38:38;;;;;;;7.15;2.08;;;;;;;45.21;3.70;99351.47;5094629;28;20024;-63
2023/04/22 06:41:03;;;;;;;4.25;1.80;;;;;;;44.38;4.04;99353.19;5076697;28;20044;-59
2023/04/22 06:43:29;;;;;;;4.65;1.90;;;;;;;43.92;4.51;99349.94;5094653;28;20036;-43
2023/04/22 06:45:54;;;;;;;4.18;1.58;;;;;;;43.64;4.24;99356.41;5094941;28;20020;-50
2023/04/22 06:48:20;;;;;;;3.80;1.83;;;;;;;43.40;4.40;99363.78;5094828;28;20024;-57
2023/04/22 06:50:45;;;;;;;3.25;1.40;;;;;;;43.91;4.27;99359.59;5076489;28;20181;-55
2023/04/22 06:53:11;;;;;;;1.75;1.30;;;;;;;44.21;3.70;99351.53;5077139;28;20071;-53
2023/04/22 06:55:37;;;;;;;5.75;1.67;;;;;;;43.64;3.79;99345.94;5076487;28;20039;-56
2023/04/22 06:58:02;;;;;;;2.88;1.48;;;;;;;40.52;5.34;99340.00;5094470;28;20032;-54
2023/04/22 07:00:28;;;;;;;4.93;1.67;;;;;;;36.02;7.82;99346.16;5094018;28;20451;-56
2023/04/22 07:02:53;;;;;;;4.03;1.70;;;;;;;32.65;11.16;99338.50;5094651;28;20036;-55
2023/04/22 07:05:19;;;;;;;7.28;1.83;;;;;;;32.70;9.93;99347.94;5094136;28;20044;-43
2023/04/22 07:07:46;;;;;;;4.07;1.55;;;;;;;35.30;8.30;99352.84;5094229;28;20042;-56
2023/04/22 07:10:13;;;;;;;3.35;1.30;;;;;;;37.66;7.54;99349.75;5094140;28;20028;-54
2023/04/22 07:12:39;;;;;;;5.00;1.85;;;;;;;36.16;7.54;99345.38;5094317;28;20047;-52
2023/04/22 07:15:06;;;;;;;3.90;1.80;;;;;;;32.82;9.40;99348.41;5094244;28;20036;-54
2023/04/22 07:17:32;;;;;;;3.17;1.52;;;;;;;31.52;10.73;99347.75;5076255;28;20040;-67
2023/04/22 07:19:58;;;;;;;3.90;1.48;;;;;;;33.25;9.42;99345.16;5092101;28;20358;-55
2023/04/22 07:22:24;;;;;;;7.85;1.55;;;;;;;36.20;7.90;99329.69;5093967;28;20040;-55
2023/04/22 07:24:49;;;;;;;4.82;1.60;;;;;;;38.20;6.84;99319.84;5093800;28;20043;-56
2023/04/22 07:27:15;;;;;;;3.97;1.63;;;;;;;35.50;7.95;99351.72;5094041;28;20043;-55
2023/04/22 07:29:40;;;;;;;4.55;1.52;;;;;;;32.05;9.76;99349.44;5093460;28;20024;-51
2023/04/22 07:32:06;;;;;;;3.90;1.45;;;;;;;29.52;11.44;99347.22;5093704;28;20032;-53
2023/04/22 07:34:32;;;;;;;3.53;1.60;;;;;;;27.46;13.15;99341.31;5093368;28;20040;-54
2023/04/22 07:36:57;;;;;;;3.55;1.40;;;;;;;26.18;14.17;99354.91;5093635;28;20034;-53
2023/04/22 07:39:23;;;;;;;3.40;1.60;;;;;;;24.92;15.50;99334.63;5093428;28;20036;-55
2023/04/22 07:41:50;;;;;;;13.20;1.65;;;;;;;25.17;15.63;99350.09;5094075;28;20089;-54
2023/04/22 07:44:20;;;;;;;5.05;2.00;;;;;;;24.70;16.21;99351.50;5093256;28;20031;-57
2023/04/22 07:46:46;;;;;;;4.38;1.50;;;;;;;23.91;16.54;99350.16;5093536;28;20882;-53
2023/04/22 07:49:12;;;;;;;6.53;1.52;;;;;;;25.12;15.27;99325.31;5092388;28;20027;-52
2023/04/22 07:51:39;;;;;;;3.35;1.50;;;;;;;25.58;14.98;99350.38;5093685;28;20028;-52
2023/04/22 07:54:05;;;;;;;6.93;1.77;;;;;;;24.41;16.39;99353.09;5093527;28;20097;-51
2023/04/22 07:56:30;;;;;;;8.27;1.60;;;;;;;23.03;18.04;99349.03;5093583;28;20032;-55
2023/04/22 07:58:56;;;;;;;6.97;1.80;;;;;;;22.22;18.78;99354.72;5075854;28;20028;-55
2023/04/22 08:01:21;;;;;;;5.47;1.75;;;;;;;21.40;19.36;99363.03;5075566;28;20507;-54
2023/04/22 08:03:46;;;;;;;4.35;1.60;;;;;;;21.05;19.62;99361.28;5093290;28;20359;-53
2023/04/22 08:06:12;;;;;;;8.40;1.50;;;;;;;20.92;19.78;99356.63;5093190;28;20024;-52
2023/04/22 08:08:37;;;;;;;6.22;1.60;;;;;;;20.94;19.83;99357.25;5092433;28;20032;-54
2023/04/22 08:11:03;;;;;;;4.00;1.55;;;;;;;20.77;19.99;99349.44;5093134;28;20071;-50
2023/04/22 08:13:29;;;;;;;3.65;1.60;;;;;;;20.87;19.96;99356.41;5093138;28;20343;-54
2023/04/22 08:15:54;;;;;;;5.28;1.70;;;;;;;20.99;19.86;99357.50;5093312;28;20039;-51
2023/04/22 08:18:20;;;;;;;3.22;1.60;;;;;;;21.05;20.17;99353.97;5093391;28;20081;-51
2023/04/22 08:20:46;;;;;;;8.20;1.92;;;;;;;20.99;20.48;99365.66;5074603;28;20032;-50
2023/04/22 08:23:12;;;;;;;3.25;1.50;;;;;;;20.92;20.06;99362.91;5092891;28;20120;-58
2023/04/22 08:25:38;;;;;;;5.32;1.30;;;;;;;20.81;20.08;99357.22;5075262;28;20119;-54
2023/04/22 08:28:03;;;;;;;5.50;1.30;;;;;;;20.54;19.31;99359.78;5092806;28;20177;-54
2023/04/22 08:30:29;;;;;;;3.70;1.00;;;;;;;20.27;19.66;99349.56;5092487;28;20028;-54
2023/04/22 08:32:54;;;;;;;4.47;1.75;;;;;;;20.26;19.84;99347.06;5092968;28;20404;-54
2023/04/22 08:35:20;;;;;;;4.93;1.20;;;;;;;19.83;20.33;99324.38;5092833;28;20031;-55
2023/04/22 08:37:46;;;;;;;3.88;1.25;;;;;;;20.16;21.23;99353.69;5092821;28;20043;-51
2023/04/22 08:40:12;;;;;;;4.47;1.85;;;;;;;20.56;20.12;99354.97;5092810;28;20040;-50
2023/04/22 08:42:38;;;;;;;5.72;1.23;;;;;;;20.83;19.75;99350.50;5092539;28;20088;-54
2023/04/22 08:45:05;;;;;;;10.32;1.20;;;;;;;20.95;19.85;99315.41;5092580;28;20027;-53
2023/04/22 08:47:33;;;;;;;2.85;1.52;;;;;;;21.35;19.66;99339.19;5092740;28;20338;-50
2023/04/22 08:50:02;;;;;;;7.55;1.45;;;;;;;21.76;19.26;99351.81;5092801;28;20479;-63
2023/04/22 08:52:30;;;;;;;6.40;1.50;;;;;;;21.73;19.13;99313.25;5092442;28;20044;-52
2023/04/22 08:54:56;;;;;;;6.72;1.25;;;;;;;21.58;19.19;99338.78;5092683;28;20047;-54
2023/04/22 08:57:22;;;;;;;7.35;2.10;;;;;;;21.07;19.60;99343.72;5092362;28;20039;-52
2023/04/22 08:59:48;;;;;;;5.95;1.50;;;;;;;20.71;20.43;99354.84;5073978;28;20028;-53
2023/04/22 09:02:20;;;;;;;10.48;1.80;;;;;;;20.59;19.86;99357.28;5092330;28;20040;-52
2023/04/22 09:04:47;;;;;;;1.55;1.00;;;;;;;20.09;19.88;99347.38;5074892;28;20114;-52
2023/04/22 09:07:26;;;;;;;1.25;0.90;;;;;;;19.90;20.21;99348.88;5092524;28;20032;-51
2023/04/22 09:09:54;;;;;;;1.70;1.10;;;;;;;19.80;20.41;99354.63;5092112;28;20036;-53
2023/04/22 09:12:20;;;;;;;8.90;1.55;;;;;;;19.91;20.24;99339.72;5092364;28;20055;-57
2023/04/22 09:14:45;;;;;;;7.22;1.27;;;;;;;19.93;20.29;99321.34;5092102;28;20362;-54
2023/04/22 09:17:15;;;;;;;2.70;1.58;;;;;;;20.08;19.01;99335.63;5092660;28;20027;-53
2023/04/22 09:19:40;;;;;;;7.25;1.00;;;;;;;19.68;19.30;99348.91;5091815;28;20370;-57
2023/04/22 09:22:09;;;;;;;2.95;1.05;;;;;;;19.65;19.56;99347.41;5092146;28;20047;-56
2023/04/22 09:24:35;;;;;;;4.15;1.20;;;;;;;19.56;19.48;99348.56;5074272;28;20020;-56
2023/04/22 09:27:02;;;;;;;5.22;1.65;;;;;;;19.52;19.74;99341.84;5092679;28;20465;-55
2023/04/22 09:29:30;;;;;;;2.47;1.10;;;;;;;19.67;19.79;99347.22;5092281;28;20027;-54
2023/04/22 09:31:56;;;;;;;3.45;1.60;;;;;;;19.68;20.06;99331.75;5074651;28;20046;-55
2023/04/22 09:34:21;;;;;;;2.22;1.20;;;;;;;19.53;20.13;99304.69;5092305;28;20036;-53
2023/04/22 09:36:50;;;;;;;4.95;1.60;;;;;;;19.87;20.11;99324.78;5092587;28;20382;-52
2023/04/22 09:39:16;;;;;;;4.22;1.42;;;;;;;19.84;20.03;99307.03;5091417;28;20044;-53
2023/04/22 09:41:41;;;;;;;2.88;1.48;;;;;;;19.68;20.19;99323.59;5092159;28;20440;-55
2023/04/22 09:44:09;;;;;;;3.28;1.40;;;;;;;19.52;20.50;99333.69;5092025;28;20393;-52
2023/04/22 09:46:35;;;;;;;2.17;1.45;;;;;;;19.43;20.89;99341.16;5092188;28;20046;-56
2023/04/22 09:49:01;;;;;;;3.08;1.30;;;;;;;19.49;21.30;99340.38;5074585;28;20024;-55
2023/04/22 09:51:28;;;;;;;4.47;1.80;;;;;;;19.31;21.30;99335.38;5091994;28;20435;-53
2023/04/22 09:54:03;;;;;;;6.65;1.73;;;;;;;19.16;21.80;99321.03;5091936;28;20039;-53
2023/04/22 09:56:47;;;;;;;5.35;1.63;;;;;;;19.16;21.95;99342.72;5092408;28;20020;-55
2023/04/22 09:59:14;;;;;;;8.68;2.38;;;;;;;18.76;22.24;99316.78;5091280;28;20413;-53
2023/04/22 10:01:41;;;;;;;5.10;1.80;;;;;;;18.93;22.32;99346.41;5091062;28;20058;-55
2023/04/22 10:04:12;;;;;;;4.10;1.73;;;;;;;19.04;22.18;99340.50;5074278;28;20142;-52
2023/04/22 10:06:38;;;;;;;4.75;1.92;;;;;;;19.15;21.97;99341.06;5091965;28;20024;-56
2023/04/22 10:09:03;;;;;;;3.20;1.60;;;;;;;19.07;21.65;99340.16;5091365;28;20082;-62
2023/04/22 10:11:31;;;;;;;6.57;2.00;;;;;;;19.01;21.71;99340.88;5092281;28;20035;-56
2023/04/22 10:13:57;;;;;;;2.33;1.50;;;;;;;19.00;21.68;99343.81;5095439;28;20028;-49
2023/04/22 10:16:24;;;;;;;4.43;2.10;;;;;;;18.97;21.65;99333.31;5095196;28;20036;-54
2023/04/22 10:18:53;;;;;;;6.95;2.10;;;;;;;18.93;22.24;99322.00;5077350;28;20066;-57
2023/04/22 10:21:19;;;;;;;2.45;1.50;;;;;;;18.93;21.79;99327.41;5077401;28;20359;-54
2023/04/22 10:23:48;;;;;;;4.30;2.08;;;;;;;18.84;21.54;99313.13;5095100;28;21133;-55
2023/04/22 10:26:37;;;;;;;6.00;1.55;;;;;;;18.97;20.93;99327.91;5095261;28;20024;-53
2023/04/22 10:29:06;;;;;;;3.15;1.75;;;;;;;18.88;21.30;99321.75;5095285;28;20063;-52
2023/04/22 10:31:32;;;;;;;7.80;2.53;;;;;;;19.03;21.04;99310.88;5095387;28;20040;-53
2023/04/22 10:34:14;;;;;;;4.45;2.53;;;;;;;19.56;20.53;99315.13;5094740;28;20036;-55
2023/04/22 10:36:57;;;;;;;2.65;1.50;;;;;;;19.87;19.86;99320.22;5095264;28;20046;-57
2023/04/22 10:39:24;;;;;;;4.35;1.80;;;;;;;19.46;19.79;99320.91;5094570;28;20044;-54
2023/04/22 10:41:52;;;;;;;5.00;1.40;;;;;;;19.40;20.25;99317.06;5077324;28;20040;-54
2023/04/22 10:44:19;;;;;;;8.90;1.70;;;;;;;19.54;20.32;99318.06;5094992;28;20417;-54
2023/04/22 10:46:51;;;;;;;4.90;1.60;;;;;;;19.69;20.20;99319.84;5094714;28;20027;-56
2023/04/22 10:49:22;;;;;;;3.58;1.48;;;;;;;19.46;20.48;99318.19;5094412;28;20043;-54
2023/04/22 10:51:51;;;;;;;2.58;1.50;;;;;;;19.17;20.90;99311.84;5094838;28;20043;-55
2023/04/22 10:54:30;;;;;;;4.95;1.50;;;;;;;19.02;21.16;99322.75;5094765;28;20114;-54
2023/04/22 10:57:00;;;;;;;4.38;1.33;;;;;;;18.58;21.40;99303.63;5094739;28;20036;-56
2023/04/22 10:59:26;;;;;;;6.28;1.65;;;;;;;18.50;22.25;99334.41;5094503;28;20202;-52
2023/04/22 11:01:52;;;;;;;5.75;1.50;;;;;;;18.50;22.38;99323.56;5094819;28;20063;-52
2023/04/22 11:04:21;;;;;;;6.18;1.30;;;;;;;18.60;22.15;99327.88;5076221;28;20070;-56
2023/04/22 11:07:21;;;;;;;5.07;1.67;;;;;;;18.80;21.83;99323.50;5094174;28;20051;-56
2023/04/22 11:10:30;;;;;;;4.07;1.70;;;;;;;18.89;21.52;99312.56;5087504;28;20028;-56
2023/04/22 11:12:56;;;;;;;3.65;1.33;;;;;;;18.76;21.22;99327.63;5055379;28;20050;-53
2023/04/22 11:15:22;;;;;;;1.50;1.30;;;;;;;18.71;20.27;99323.84;5094335;28;20391;-52
2023/04/22 11:17:52;;;;;;;1.67;1.38;;;;;;;18.66;20.36;99316.25;5093836;28;20138;-52
2023/04/22 11:20:18;;;;;;;6.63;1.60;;;;;;;18.67;20.66;99311.66;5094354;28;20060;-51
2023/04/22 11:22:49;;;;;;;3.38;1.20;;;;;;;18.85;20.23;99303.13;5093947;28;20035;-54
2023/04/22 11:25:15;;;;;;;1.85;1.10;;;;;;;18.82;20.39;99311.66;5094230;28;20038;-55
2023/04/22 11:27:44;;;;;;;6.53;1.60;;;;;;;18.65;20.22;99320.00;5093195;28;20028;-56
2023/04/22 11:30:23;;;;;;;5.50;1.20;;;;;;;18.69;20.30;99304.16;5094237;28;20033;-55
2023/04/22 11:32:51;;;;;;;5.78;1.48;;;;;;;18.51;20.72;99313.56;5094355;28;20020;-55
2023/04/22 11:35:18;;;;;;;5.03;1.38;;;;;;;18.42;20.72;99310.09;5094187;28;20100;-54